Time,TemperatureF,DewpointF,PressureIn,WindDirection,WindDirectionDegrees,WindSpeedMPH,WindSpeedGustMPH,Humidity,HourlyPrecipIn,Conditions,Clouds,dailyrainin,SoftwareType,DateUTC
2014-12-27 00:02:00,27.0,25.8,30.06,ENE,73,1.0,4.0,95,0.00,,,0.00,Wunderground v.1.15,2014-12-27 05:02:00,
2014-12-27 00:07:00,27.2,26.2,30.06,ENE,78,2.0,4.0,96,0.00,,,0.00,Wunderground v.1.15,2014-12-27 05:07:00,
2014-12-27 00:12:00,27.3,26.3,30.06,WNW,288,0.0,5.0,96,0.00,,,0.00,Wunderground v.1.15,2014-12-27 05:12:00,
2014-12-27 00:17:00,27.2,26.2,30.06,West,261,4.0,5.0,96,0.00,,,0.00,Wunderground v.1.15,2014-12-27 05:17:00,
2014-12-27 00:22:00,26.8,25.6,30.06,West,270,4.0,5.0,95,0.00,,,0.00,Wunderground v.1.15,2014-12-27 05:22:00,
2014-12-27 00:27:00,26.5,25.3,30.06,West,263,5.0,5.0,95,0.00,,,0.00,Wunderground v.1.15,2014-12-27 05:27:00,
2014-12-27 00:32:00,26.5,25.3,30.06,WSW,251,3.0,4.0,95,0.00,,,0.00,Wunderground v.1.15,2014-12-27 05:32:00,
2014-12-27 00:37:00,26.5,25.5,30.06,WSW,247,3.0,6.0,96,0.00,,,0.00,Wunderground v.1.15,2014-12-27 05:37:00,
2014-12-27 00:41:00,26.6,25.6,30.06,WSW,250,3.0,5.0,96,0.00,,,0.00,Wunderground v.1.15,2014-12-27 05:41:00,
2014-12-27 00:46:00,26.7,25.7,30.06,West,265,0.0,5.0,96,0.00,,,0.00,Wunderground v.1.15,2014-12-27 05:46:00,
2014-12-27 00:51:00,26.8,25.8,30.06,West,272,4.0,5.0,96,0.00,,,0.00,Wunderground v.1.15,2014-12-27 05:51:00,
2014-12-27 00:56:00,26.9,25.9,30.06,SW,225,1.0,5.0,96,0.00,,,0.00,Wunderground v.1.15,2014-12-27 05:56:00,
2014-12-27 01:01:00,26.8,25.8,30.06,NE,51,1.0,3.0,96,0.00,,,0.00,Wunderground v.1.15,2014-12-27 06:01:00,
2014-12-27 01:06:00,26.9,25.9,30.06,ENE,65,2.0,3.0,96,0.00,,,0.00,Wunderground v.1.15,2014-12-27 06:06:00,
2014-12-27 01:11:00,27.0,26.0,30.06,ENE,65,0.0,2.0,96,0.00,,,0.00,Wunderground v.1.15,2014-12-27 06:11:00,
2014-12-27 01:16:00,27.2,26.2,30.06,ENE,65,0.0,2.0,96,0.00,,,0.00,Wunderground v.1.15,2014-12-27 06:16:00,
2014-12-27 01:21:00,27.3,26.3,30.07,ENE,65,1.0,1.0,96,0.00,,,0.00,Wunderground v.1.15,2014-12-27 06:21:00,
2014-12-27 01:26:00,27.4,26.4,30.07,ENE,65,1.0,2.0,96,0.00,,,0.00,Wunderground v.1.15,2014-12-27 06:26:00,
2014-12-27 01:31:00,27.5,26.5,30.07,ENE,65,0.0,2.0,96,0.00,,,0.00,Wunderground v.1.15,2014-12-27 06:31:00,
2014-12-27 01:36:00,27.4,26.4,30.08,ENE,65,0.0,2.0,96,0.00,,,0.00,Wunderground v.1.15,2014-12-27 06:36:00,
2014-12-27 01:41:00,27.3,26.3,30.08,NW,304,1.0,2.0,96,0.00,,,0.00,Wunderground v.1.15,2014-12-27 06:41:00,
2014-12-27 01:46:00,27.2,26.2,30.08,NW,304,0.0,2.0,96,0.00,,,0.00,Wunderground v.1.15,2014-12-27 06:46:00,
2014-12-27 01:51:00,27.1,26.1,30.08,NW,304,0.0,0.0,96,0.00,,,0.00,Wunderground v.1.15,2014-12-27 06:51:00,
2014-12-27 01:56:00,27.0,26.0,30.08,NW,304,0.0,0.0,96,0.00,,,0.00,Wunderground v.1.15,2014-12-27 06:56:00,
2014-12-27 02:01:00,26.9,25.9,30.08,NW,304,0.0,0.0,96,0.00,,,0.00,Wunderground v.1.15,2014-12-27 07:01:00,
2014-12-27 02:06:00,26.9,25.9,30.09,NW,304,0.0,0.0,96,0.00,,,0.00,Wunderground v.1.15,2014-12-27 07:06:00,
2014-12-27 02:11:00,26.7,25.7,30.08,NW,307,0.0,2.0,96,0.00,,,0.00,Wunderground v.1.15,2014-12-27 07:11:00,
2014-12-27 02:16:00,26.7,25.7,30.09,NW,307,2.0,2.0,96,0.00,,,0.00,Wunderground v.1.15,2014-12-27 07:16:00,
2014-12-27 02:21:00,26.6,25.6,30.09,NW,307,1.0,2.0,96,0.00,,,0.00,Wunderground v.1.15,2014-12-27 07:21:00,
2014-12-27 02:26:00,26.6,25.6,30.09,NW,307,0.0,2.0,96,0.00,,,0.00,Wunderground v.1.15,2014-12-27 07:26:00,
2014-12-27 02:31:00,26.5,25.5,30.09,NW,307,0.0,1.0,96,0.00,,,0.00,Wunderground v.1.15,2014-12-27 07:31:00,
2014-12-27 02:36:00,26.5,25.5,30.09,NW,307,0.0,1.0,96,0.00,,,0.00,Wunderground v.1.15,2014-12-27 07:36:00,
2014-12-27 02:41:00,26.4,25.4,30.08,NW,307,0.0,1.0,96,0.00,,,0.00,Wunderground v.1.15,2014-12-27 07:41:00,
2014-12-27 02:46:00,26.2,25.0,30.08,NW,307,0.0,1.0,95,0.00,,,0.00,Wunderground v.1.15,2014-12-27 07:46:00,
2014-12-27 02:51:00,26.0,25.0,30.08,NW,307,1.0,2.0,96,0.00,,,0.00,Wunderground v.1.15,2014-12-27 07:51:00,
2014-12-27 02:56:00,26.0,25.0,30.08,NW,307,0.0,2.0,96,0.00,,,0.00,Wunderground v.1.15,2014-12-27 07:56:00,
2014-12-27 03:01:00,26.0,25.0,30.08,NW,307,0.0,1.0,96,0.00,,,0.00,Wunderground v.1.15,2014-12-27 08:01:00,
2014-12-27 03:06:00,26.0,25.0,30.08,NW,308,2.0,4.0,96,0.00,,,0.00,Wunderground v.1.15,2014-12-27 08:06:00,
2014-12-27 03:11:00,25.9,24.9,30.08,NE,36,0.0,2.0,96,0.00,,,0.00,Wunderground v.1.15,2014-12-27 08:11:00,
2014-12-27 03:16:00,25.8,24.8,30.08,NE,36,0.0,2.0,96,0.00,,,0.00,Wunderground v.1.15,2014-12-27 08:16:00,
2014-12-27 03:21:00,25.9,24.9,30.08,NE,36,0.0,0.0,96,0.00,,,0.00,Wunderground v.1.15,2014-12-27 08:21:00,
2014-12-27 03:26:00,25.8,24.8,30.08,NE,36,0.0,0.0,96,0.00,,,0.00,Wunderground v.1.15,2014-12-27 08:26:00,
2014-12-27 03:31:00,25.8,24.8,30.08,NE,36,0.0,0.0,96,0.00,,,0.00,Wunderground v.1.15,2014-12-27 08:31:00,
2014-12-27 03:36:00,25.9,24.9,30.08,NE,36,1.0,2.0,96,0.00,,,0.00,Wunderground v.1.15,2014-12-27 08:36:00,
2014-12-27 03:41:00,25.8,24.8,30.08,NE,36,0.0,0.0,96,0.00,,,0.00,Wunderground v.1.15,2014-12-27 08:41:00,
2014-12-27 03:46:00,25.8,24.8,30.08,NE,36,1.0,4.0,96,0.00,,,0.00,Wunderground v.1.15,2014-12-27 08:46:00,
2014-12-27 03:51:00,25.8,24.8,30.07,NE,36,2.0,2.0,96,0.00,,,0.00,Wunderground v.1.15,2014-12-27 08:51:00,
2014-12-27 03:56:00,25.8,24.8,30.07,NE,36,0.0,2.0,96,0.00,,,0.00,Wunderground v.1.15,2014-12-27 08:56:00,
2014-12-27 04:01:00,25.8,24.8,30.08,NE,36,0.0,0.0,96,0.00,,,0.00,Wunderground v.1.15,2014-12-27 09:01:00,
2014-12-27 04:06:00,25.8,24.8,30.08,NE,36,0.0,0.0,96,0.00,,,0.00,Wunderground v.1.15,2014-12-27 09:06:00,
2014-12-27 04:11:00,25.7,24.7,30.08,NE,36,0.0,0.0,96,0.00,,,0.00,Wunderground v.1.15,2014-12-27 09:11:00,
2014-12-27 04:16:00,25.6,24.6,30.08,NE,36,0.0,2.0,96,0.00,,,0.00,Wunderground v.1.15,2014-12-27 09:16:00,
2014-12-27 04:21:00,25.5,24.5,30.08,NE,36,1.0,1.0,96,0.00,,,0.00,Wunderground v.1.15,2014-12-27 09:21:00,
2014-12-27 04:26:00,25.4,24.4,30.08,NE,36,1.0,2.0,96,0.00,,,0.00,Wunderground v.1.15,2014-12-27 09:26:00,